Time;durP1;ratioP1;P1;durP2;ratioP2;P2;SDS_P1;SDS_P2;PMS_P1;PMS_P2;Temp;Humidity;BMP_temperature;BMP_pressure;BME280_temperature;BME280_humidity;BME280_pressure;Samples;Min_cycle;Max_cycle;Signal;HPM_P1;HPM_P2
2023/06/09 00:01:53;;;;;;;;;;;25.10;30.00;;;24.53;27.32;101144.53;12263878;19;19918;-84
2023/06/09 00:05:54;;;;;;;;;;;25.00;30.00;;;24.46;27.09;101139.00;12266277;19;19927;-84
2023/06/09 00:09:56;;;;;;;;;;;25.00;30.00;;;24.52;27.45;101150.88;12266199;19;19933;-84
2023/06/09 00:13:58;;;;;;;;;;;25.00;30.00;;;24.49;27.61;101156.53;12261025;19;19923;-84
2023/06/09 00:18:02;;;;;;;;;;;24.90;30.00;;;24.42;27.51;101150.16;12262868;19;19915;-83
2023/06/09 00:22:05;;;;;;;;;;;24.90;30.00;;;24.34;27.76;101148.31;12263481;19;19945;-84
2023/06/09 00:26:06;;;;;;;;;;;24.90;30.00;;;24.29;27.64;101155.97;12261786;19;19935;-83
2023/06/09 00:30:08;;;;;;;;;;;24.80;30.00;;;24.21;27.74;101148.78;12262432;19;19939;-83
2023/06/09 00:34:10;;;;;;;;;;;24.70;30.00;;;24.16;27.44;101148.44;12256894;19;20317;-83
2023/06/09 00:38:11;;;;;;;;;;;24.70;30.50;;;23.96;27.86;101118.53;12259479;19;20257;-84
2023/06/09 00:42:13;;;;;;;;;;;24.60;30.10;;;24.02;27.65;101146.41;12258367;19;19918;-84
2023/06/09 00:46:15;;;;;;;;;;;24.50;30.20;;;23.76;27.73;101119.78;12264520;19;19914;-83
2023/06/09 00:50:17;;;;;;;;;;;24.40;30.20;;;23.79;27.66;101144.34;12259742;19;19930;-84
2023/06/09 00:54:18;;;;;;;;;;;24.30;30.20;;;23.68;27.68;101139.22;12259844;19;20266;-83
2023/06/09 00:58:21;;;;;;;;;;;24.20;30.20;;;23.52;27.93;101126.69;12262124;19;19919;-84
2023/06/09 01:02:23;;;;;;;;;;;24.10;30.20;;;23.45;28.14;101124.81;12260724;19;19943;-83
2023/06/09 01:06:38;;;;;;;;;;;24.00;30.30;;;23.39;28.20;101127.13;12261660;19;19915;-84
2023/06/09 01:10:55;;;;;;;;;;;23.90;30.40;;;23.30;28.24;101130.72;12264385;19;19918;-84
2023/06/09 01:15:11;;;;;;;;;;;23.80;30.40;;;23.17;28.08;101131.16;12260148;19;20006;-84
2023/06/09 01:19:31;;;;;;;;;;;23.70;30.40;;;22.94;27.97;101101.47;12261939;19;19955;-84
2023/06/09 01:23:51;;;;;;;;;;;23.70;30.50;;;23.07;27.98;101137.56;12257384;19;19914;-84
2023/06/09 01:27:57;;;;;;;;;;;23.60;30.60;;;22.86;28.48;101109.41;12262431;19;20325;-83
2023/06/09 01:32:02;;;;;;;;;;;23.50;30.60;;;22.96;28.20;101128.84;12255277;19;19918;-84
2023/06/09 01:36:04;;;;;;;;;;;23.50;30.70;;;22.92;28.47;101132.75;12265692;19;20333;-84
2023/06/09 01:40:08;;;;;;;;;;;23.50;30.70;;;22.93;28.55;101145.09;12264856;19;19933;-84
2023/06/09 01:44:11;;;;;;;;;;;23.40;30.70;;;22.74;28.22;101118.66;12261167;19;19915;-84
2023/06/09 01:48:42;;;;;;;;;;;23.30;30.70;;;22.77;28.46;101136.16;12266085;19;19919;-84
2023/06/09 01:52:51;;;;;;;;;;;23.30;30.80;;;22.68;28.69;101137.91;12260797;19;19919;-84
2023/06/09 01:57:06;;;;;;;;;;;23.20;30.80;;;22.56;28.28;101123.16;12263055;19;19918;-84
2023/06/09 02:01:09;;;;;;;;;;;23.10;30.90;;;22.49;28.29;101123.78;12262438;19;19939;-84
2023/06/09 02:05:12;;;;;;;;;;;23.10;31.00;;;22.38;28.52;101124.00;12262431;19;19944;-84
2023/06/09 02:09:14;;;;;;;;;;;23.00;31.00;;;22.22;28.61;101114.00;12260613;19;19929;-84
2023/06/09 02:13:19;;;;;;;;;;;22.90;30.90;;;22.27;28.72;101135.69;12256856;19;19923;-84
2023/06/09 02:17:21;;;;;;;;;;;22.80;31.00;;;22.14;29.02;101121.06;12261852;19;19915;-84
2023/06/09 02:21:23;;;;;;;;;;;22.70;31.00;;;22.08;28.57;101119.84;12258831;19;19978;-84
2023/06/09 02:25:28;;;;;;;;;;;22.60;31.10;;;21.79;28.89;101090.75;12257733;19;20360;-83
2023/06/09 02:29:30;;;;;;;;;;;22.50;31.20;;;21.95;28.65;101132.66;12256219;19;19978;-83
2023/06/09 02:33:31;;;;;;;;;;;22.50;31.30;;;21.73;28.72;101102.81;12250047;19;19936;-83
2023/06/09 02:37:35;;;;;;;;;;;22.40;31.30;;;21.77;29.18;101122.81;12254502;19;20549;-84
2023/06/09 02:41:36;;;;;;;;;;;22.40;31.30;;;21.68;29.11;101128.19;12259339;19;19930;-84
2023/06/09 02:45:38;;;;;;;;;;;22.30;31.50;;;21.53;28.93;101122.53;12267224;19;19915;-84
2023/06/09 02:49:40;;;;;;;;;;;22.20;31.30;;;21.17;29.19;101072.72;12264099;19;19919;-84
2023/06/09 02:53:42;;;;;;;;;;;22.10;31.40;;;21.19;29.22;101084.00;12261838;19;19935;-84
2023/06/09 02:57:45;;;;;;;;;;;22.10;31.40;;;21.43;29.34;101139.31;12265936;19;19947;-84
2023/06/09 03:01:48;;;;;;;;;;;22.00;31.40;;;21.35;29.12;101133.88;12262747;19;19939;-84
2023/06/09 03:05:50;;;;;;;;;;;22.00;31.50;;;21.31;29.58;101136.97;12262373;19;19919;-84
2023/06/09 03:09:52;;;;;;;;;;;21.90;31.60;;;21.27;29.56;101146.19;12264170;19;19926;-84
2023/06/09 03:13:55;;;;;;;;;;;21.80;31.60;;;21.21;29.50;101143.13;12265146;19;19996;-84
2023/06/09 03:17:57;;;;;;;;;;;21.80;31.60;;;21.18;29.68;101148.75;12267317;19;20002;-83
2023/06/09 03:22:03;;;;;;;;;;;21.70;31.70;;;21.05;29.32;101137.59;12265469;19;19936;-84
2023/06/09 03:26:09;;;;;;;;;;;21.70;31.80;;;21.00;29.44;101147.78;12268929;19;20314;-84
2023/06/09 03:30:11;;;;;;;;;;;21.60;31.70;;;20.87;29.37;101131.31;12266927;19;19938;-84
2023/06/09 03:34:14;;;;;;;;;;;21.60;31.80;;;20.97;29.59;101154.22;12260380;19;19918;-83
2023/06/09 03:38:16;;;;;;;;;;;21.60;31.90;;;20.96;29.92;101155.22;12265689;19;19915;-84
2023/06/09 03:42:18;;;;;;;;;;;21.50;31.80;;;20.95;29.95;101161.50;12263325;19;19933;-83
2023/06/09 03:46:20;;;;;;;;;;;21.60;32.00;;;20.94;29.51;101166.94;12265188;19;19942;-83
2023/06/09 03:50:23;;;;;;;;;;;21.50;32.10;;;20.98;29.98;101166.53;12273250;19;19930;-84
2023/06/09 03:54:25;;;;;;;;;;;21.60;32.00;;;20.96;29.76;101163.19;12276864;19;19942;-84
2023/06/09 03:58:27;;;;;;;;;;;21.60;32.30;;;20.87;29.88;101144.59;12274694;19;19947;-84
2023/06/09 04:02:29;;;;;;;;;;;21.60;32.20;;;20.94;29.97;101153.69;12270917;19;19925;-84
2023/06/09 04:06:31;;;;;;;;;;;21.60;32.30;;;20.95;30.16;101164.16;12269949;19;19915;-84
2023/06/09 04:10:32;;;;;;;;;;;21.60;32.20;;;20.89;29.94;101153.25;12273217;19;19927;-84
2023/06/09 04:14:34;;;;;;;;;;;21.60;32.30;;;20.97;30.01;101158.69;12263453;19;20466;-83
2023/06/09 04:18:36;;;;;;;;;;;21.60;32.20;;;20.94;30.35;101159.00;12273352;19;19974;-84
2023/06/09 04:22:47;;;;;;;;;;;21.60;32.20;;;21.00;30.18;101161.91;12271225;19;19930;-84
2023/06/09 04:26:49;;;;;;;;;;;21.70;32.40;;;21.04;30.39;101167.78;12267352;19;19926;-84
2023/06/09 04:30:51;;;;;;;;;;;21.70;32.30;;;20.94;30.18;101145.72;12263861;19;19942;-84
2023/06/09 04:34:53;;;;;;;;;;;21.70;32.50;;;21.04;30.34;101157.16;12265910;19;19915;-84
2023/06/09 04:38:55;;;;;;;;;;;21.70;33.00;;;21.05;30.43;101156.16;12265501;19;19917;-84
2023/06/09 04:42:59;;;;;;;;;;;21.70;32.50;;;21.10;30.53;101158.41;12262057;19;19922;-83
2023/06/09 04:47:02;;;;;;;;;;;21.80;32.60;;;20.92;30.45;101121.13;12266608;19;19919;-84
2023/06/09 04:51:04;;;;;;;;;;;21.80;33.30;;;21.14;30.21;101152.69;12267320;19;19918;-84
2023/06/09 04:55:13;;;;;;;;;;;21.80;32.90;;;21.17;30.60;101144.41;12265929;19;20264;-84
2023/06/09 04:59:15;;;;;;;;;;;21.90;32.90;;;20.97;30.78;101105.59;12266633;19;19928;-83
2023/06/09 05:03:17;;;;;;;;;;;22.00;33.50;;;21.32;30.38;101159.91;12263845;19;19927;-84
2023/06/09 05:07:20;;;;;;;;;;;22.00;33.00;;;21.29;30.60;101144.25;12265077;19;19919;-83
2023/06/09 05:11:21;;;;;;;;;;;22.10;34.10;;;21.32;30.41;101144.78;12265727;19;19919;-84
2023/06/09 05:15:23;;;;;;;;;;;22.20;33.00;;;21.46;30.78;101164.78;12267988;19;19911;-85
2023/06/09 05:19:25;;;;;;;;;;;22.20;32.70;;;21.52;30.55;101174.84;12269325;19;19914;-83
2023/06/09 05:23:26;;;;;;;;;;;22.30;33.50;;;21.50;30.55;101176.81;12263826;19;19999;-83
2023/06/09 05:27:28;;;;;;;;;;;22.40;32.80;;;21.64;30.90;101175.50;12271578;19;19923;-84
2023/06/09 05:31:31;;;;;;;;;;;22.40;33.20;;;21.67;30.77;101177.84;12269287;19;19919;-84
2023/06/09 05:35:33;;;;;;;;;;;22.60;32.40;;;21.76;30.64;101179.63;12269512;19;19953;-84
2023/06/09 05:39:35;;;;;;;;;;;22.70;32.20;;;21.80;30.83;101172.22;12269224;19;19940;-85
2023/06/09 05:43:37;;;;;;;;;;;22.80;31.90;;;22.02;30.67;101200.22;12262532;19;19926;-85
2023/06/09 05:47:38;;;;;;;;;;;22.90;32.80;;;22.08;30.53;101184.50;12272705;19;19922;-85
2023/06/09 05:51:40;;;;;;;;;;;23.00;32.50;;;22.28;31.09;101197.75;12268031;19;20327;-84
2023/06/09 05:55:44;;;;;;;;;;;23.10;32.00;;;22.33;30.71;101181.31;12270341;19;20272;-84
2023/06/09 05:59:46;;;;;;;;;;;23.30;31.50;;;22.52;30.54;101191.81;12261490;19;19915;-84
2023/06/09 06:03:47;;;;;;;;;;;23.40;31.50;;;22.63;30.97;101193.44;12257668;19;19922;-84
2023/06/09 06:07:48;;;;;;;;;;;23.50;31.00;;;22.76;30.71;101193.88;12261134;19;19926;-85
2023/06/09 06:11:50;;;;;;;;;;;23.60;30.20;;;22.92;30.52;101202.00;12264316;19;19951;-83
2023/06/09 06:15:51;;;;;;;;;;;23.80;30.80;;;23.01;30.65;101187.00;12266127;19;19921;-83
2023/06/09 06:19:52;;;;;;;;;;;23.90;29.90;;;23.16;30.56;101190.75;12273092;19;19918;-82
2023/06/09 06:23:54;;;;;;;;;;;24.10;30.10;;;23.39;30.58;101196.41;12271224;19;19907;-82
2023/06/09 06:27:56;;;;;;;;;;;24.30;30.60;;;23.61;30.23;101204.88;12278375;19;19940;-83
2023/06/09 06:31:57;;;;;;;;;;;24.50;30.70;;;23.79;30.50;101196.81;12274744;19;20342;-81
2023/06/09 06:35:59;;;;;;;;;;;24.70;30.50;;;23.99;30.54;101216.09;12278147;19;20292;-82
2023/06/09 06:40:01;;;;;;;;;;;24.90;30.50;;;24.09;30.35;101200.81;12274472;19;19936;-82
2023/06/09 06:44:02;;;;;;;;;;;25.10;30.30;;;24.31;30.14;101210.03;12260255;19;20484;-83
2023/06/09 06:48:03;;;;;;;;;;;25.20;28.90;;;24.24;30.23;101171.63;12262842;19;19914;-82
2023/06/09 06:52:05;;;;;;;;;;;25.40;29.80;;;24.54;29.86;101207.59;12262495;19;20329;-82
2023/06/09 06:56:07;;;;;;;;;;;25.50;29.70;;;24.70;29.52;101209.47;12264460;19;20557;-82
2023/06/09 07:00:10;;;;;;;;;;;25.70;28.00;;;24.80;29.63;101210.16;12264425;19;19927;-82
2023/06/09 07:04:11;;;;;;;;;;;25.80;29.00;;;24.97;29.45;101215.50;12247113;19;19978;-82
2023/06/09 07:08:13;;;;;;;;;;;25.90;28.70;;;25.07;29.62;101213.50;12257750;19;19925;-83
2023/06/09 07:12:15;;;;;;;;;;;26.00;28.70;;;25.15;29.38;101206.34;12252756;19;20494;-83
2023/06/09 07:16:16;;;;;;;;;;;26.10;27.90;;;25.30;29.38;101217.19;12255081;19;19922;-83
2023/06/09 07:20:17;;;;;;;;;;;26.20;28.70;;;25.43;29.30;101216.66;12260197;19;19990;-84
2023/06/09 07:24:19;;;;;;;;;;;26.30;29.00;;;25.54;28.78;101213.63;12254940;19;19919;-82
2023/06/09 07:28:20;;;;;;;;;;;26.50;28.80;;;25.69;28.63;101207.56;12255065;19;20263;-82
2023/06/09 07:32:22;;;;;;;;;;;26.60;27.60;;;25.82;29.14;101205.19;12255865;19;19947;-82
2023/06/09 07:36:24;;;;;;;;;;;26.80;27.70;;;25.67;28.84;101153.41;12256289;19;20337;-82
2023/06/09 07:40:25;;;;;;;;;;;27.00;28.40;;;26.17;28.34;101209.25;12255846;19;19922;-83
2023/06/09 07:44:27;;;;;;;;;;;27.10;28.10;;;26.34;28.65;101211.84;12253394;19;19939;-83
2023/06/09 07:48:29;;;;;;;;;;;27.20;28.50;;;26.51;28.60;101209.88;12258386;19;19951;-83
2023/06/09 07:52:30;;;;;;;;;;;27.40;28.30;;;26.62;28.27;101209.50;12252946;19;19929;-83
2023/06/09 07:56:32;;;;;;;;;;;27.60;28.10;;;26.76;27.88;101207.88;12252843;19;20537;-83
2023/06/09 08:00:35;;;;;;;;;;;27.70;27.40;;;26.88;28.06;101209.97;12261389;19;19927;-81
2023/06/09 08:04:37;;;;;;;;;;;27.80;28.70;;;27.04;28.19;101213.53;12259739;19;19914;-83
2023/06/09 08:08:38;;;;;;;;;;;28.00;28.60;;;27.22;27.77;101221.28;12258956;19;19943;-83
2023/06/09 08:12:40;;;;;;;;;;;28.10;28.40;;;27.36;27.81;101220.47;12255386;19;20000;-82
2023/06/09 08:16:41;;;;;;;;;;;28.30;28.10;;;27.46;27.60;101201.41;12252531;19;19919;-82
2023/06/09 08:20:44;;;;;;;;;;;28.40;28.40;;;27.63;27.85;101202.91;12251887;19;19923;-83
2023/06/09 08:24:46;;;;;;;;;;;28.50;28.80;;;27.75;27.62;101205.97;12249964;19;19942;-83
2023/06/09 08:28:48;;;;;;;;;;;28.70;28.30;;;27.91;27.48;101215.69;12256396;19;20369;-83
2023/06/09 08:32:49;;;;;;;;;;;28.80;28.70;;;28.03;27.40;101211.53;12254976;19;19950;-82
2023/06/09 08:36:51;;;;;;;;;;;28.90;28.50;;;28.14;27.61;101204.81;12253565;19;19923;-83
2023/06/09 08:41:01;;;;;;;;;;;29.10;28.60;;;28.26;27.68;101205.19;12246550;19;20831;-83
2023/06/09 08:45:04;;;;;;;;;;;29.20;27.90;;;28.27;27.55;101186.16;12255714;19;19922;-82
2023/06/09 08:49:06;;;;;;;;;;;29.30;28.50;;;28.44;27.07;101203.75;12253059;19;20709;-83
2023/06/09 08:53:09;;;;;;;;;;;29.40;27.40;;;28.46;27.07;101187.44;12250694;19;19947;-81
2023/06/09 08:57:10;;;;;;;;;;;29.40;28.40;;;28.59;26.75;101187.56;12254647;19;19923;-83
2023/06/09 09:01:13;;;;;;;;;;;29.60;28.50;;;28.79;26.94;101189.63;12254505;19;19921;-82
2023/06/09 09:05:14;;;;;;;;;;;29.60;28.50;;;28.97;26.67;101200.72;12253515;19;19982;-82
2023/06/09 09:09:16;;;;;;;;;;;29.80;28.30;;;29.14;26.96;101195.09;12253060;19;19915;-82
2023/06/09 09:13:19;;;;;;;;;;;30.00;28.30;;;29.25;27.04;101195.41;12250957;19;19918;-82
2023/06/09 09:17:20;;;;;;;;;;;30.10;28.70;;;29.44;26.77;101201.94;12250620;19;19954;-84
2023/06/09 09:21:23;;;;;;;;;;;30.30;28.50;;;29.51;26.65;101183.13;12253472;19;20246;-83
2023/06/09 09:25:29;;;;;;;;;;;30.50;28.50;;;29.76;26.66;101195.13;12251474;19;19930;-83
2023/06/09 09:29:39;;;;;;;;;;;30.60;28.80;;;29.93;26.66;101189.38;12255927;19;19923;-82
2023/06/09 09:33:47;;;;;;;;;;;30.80;28.20;;;30.08;26.66;101187.34;12253597;19;20273;-83
2023/06/09 09:37:51;;;;;;;;;;;31.00;28.10;;;30.15;26.37;101182.81;12261921;19;20345;-83
2023/06/09 09:42:07;;;;;;;;;;;31.10;29.00;;;30.29;26.33;101191.81;12257397;19;19918;-83
2023/06/09 09:46:08;;;;;;;;;;;31.20;27.80;;;30.39;26.48;101184.16;12257456;19;19926;-81
2023/06/09 09:50:10;;;;;;;;;;;31.30;28.40;;;30.42;26.32;101170.28;12262132;19;20447;-83
2023/06/09 09:54:12;;;;;;;;;;;31.40;27.70;;;30.54;26.25;101175.03;12263541;19;19938;-83
2023/06/09 09:58:15;;;;;;;;;;;31.40;27.80;;;30.66;26.16;101178.81;12268617;19;19959;-83
2023/06/09 10:02:21;;;;;;;;;;;31.60;28.30;;;30.80;26.07;101171.53;12264557;19;19939;-83
2023/06/09 10:06:29;;;;;;;;;;;31.60;28.40;;;30.84;26.06;101179.06;12269587;19;19923;-83
2023/06/09 10:10:31;;;;;;;;;;;31.80;28.90;;;30.95;25.99;101171.38;12262890;19;19918;-81
2023/06/09 10:14:33;;;;;;;;;;;31.90;27.40;;;30.97;25.63;101151.22;12263208;19;19919;-82
2023/06/09 10:18:37;;;;;;;;;;;31.90;28.30;;;31.09;25.62;101164.94;12264823;19;19934;-86
2023/06/09 10:22:39;;;;;;;;;;;32.00;28.40;;;31.18;25.65;101177.16;12259553;19;19911;-85
2023/06/09 10:26:41;;;;;;;;;;;32.10;27.80;;;31.09;25.75;101146.03;12263938;19;19926;-84
2023/06/09 10:30:47;;;;;;;;;;;32.10;26.90;;;31.28;25.48;101168.63;12261479;19;19958;-84
2023/06/09 10:34:50;;;;;;;;;;;32.10;27.90;;;31.20;25.35;101139.16;12268389;19;19926;-85
2023/06/09 10:38:55;;;;;;;;;;;32.20;28.20;;;31.29;25.56;101146.81;12266368;19;19919;-86
2023/06/09 10:43:20;;;;;;;;;;;32.20;27.40;;;31.49;25.32;101162.19;12261869;19;20292;-84
2023/06/09 10:47:40;;;;;;;;;;;32.30;28.10;;;31.55;25.41;101161.31;12267981;19;19927;-85
2023/06/09 10:51:42;;;;;;;;;;;32.30;28.10;;;31.62;25.47;101161.28;12269892;19;19960;-83
2023/06/09 10:55:43;;;;;;;;;;;32.40;28.00;;;31.62;25.10;101137.84;12266928;19;19918;-84
2023/06/09 10:59:47;;;;;;;;;;;32.50;28.30;;;31.76;25.20;101144.00;12271282;19;19919;-83
2023/06/09 11:03:49;;;;;;;;;;;32.50;28.30;;;31.78;25.18;101128.38;12258899;19;19921;-84
2023/06/09 11:08:02;;;;;;;;;;;32.60;27.70;;;31.93;24.92;101142.47;12258945;19;19926;-83
2023/06/09 11:12:04;;;;;;;;;;;32.70;27.80;;;31.99;25.10;101135.38;12257820;19;19923;-83
2023/06/09 11:16:07;;;;;;;;;;;32.80;27.80;;;31.94;25.02;101127.09;12259863;19;19950;-83
2023/06/09 11:20:11;;;;;;;;;;;32.80;28.00;;;32.08;24.98;101134.09;12256102;19;19927;-83
2023/06/09 11:24:13;;;;;;;;;;;32.80;28.00;;;32.21;24.95;101124.25;12255365;19;19928;-82
2023/06/09 11:28:15;;;;;;;;;;;32.90;28.10;;;32.34;24.70;101119.56;12257415;19;19932;-84
2023/06/09 11:32:19;;;;;;;;;;;33.10;28.40;;;32.38;24.60;101103.75;12255854;19;19919;-83
2023/06/09 11:36:27;;;;;;;;;;;33.10;28.40;;;32.53;24.76;101120.50;12255255;19;19927;-83
2023/06/09 11:40:30;;;;;;;;;;;33.20;28.60;;;32.57;24.87;101121.72;12259422;19;19926;-83
2023/06/09 11:44:36;;;;;;;;;;;33.40;28.30;;;32.61;24.61;101109.38;12256144;19;20333;-83
2023/06/09 11:48:37;;;;;;;;;;;33.40;26.20;;;32.57;24.74;101113.59;12259641;19;19915;-84
2023/06/09 11:52:43;;;;;;;;;;;33.40;27.80;;;32.53;24.44;101098.03;12256247;19;19918;-83
2023/06/09 11:56:47;;;;;;;;;;;33.30;27.10;;;32.49;24.43;101102.25;12256916;19;20359;-82
2023/06/09 12:00:49;;;;;;;;;;;33.30;27.80;;;32.49;24.11;101094.94;12254243;19;19974;-84
2023/06/09 12:04:51;;;;;;;;;;;33.20;27.50;;;32.51;24.12;101095.53;12248334;19;19922;-83
2023/06/09 12:09:13;;;;;;;;;;;33.20;27.00;;;32.49;24.24;101092.25;12253727;19;20249;-83
2023/06/09 12:13:14;;;;;;;;;;;33.20;27.40;;;32.60;24.34;101096.09;12252169;19;19942;-84
2023/06/09 12:17:16;;;;;;;;;;;33.30;27.80;;;32.64;24.45;101091.91;12257289;19;19919;-83
2023/06/09 12:21:18;;;;;;;;;;;33.30;28.00;;;32.66;24.17;101070.88;12252881;19;19933;-83
2023/06/09 12:25:26;;;;;;;;;;;33.50;28.00;;;32.84;24.33;101086.31;12253438;19;19946;-83
2023/06/09 12:29:28;;;;;;;;;;;33.50;27.90;;;32.90;24.21;101081.88;12252565;19;19971;-83
2023/06/09 12:33:29;;;;;;;;;;;33.60;26.90;;;32.94;24.12;101086.59;12248456;19;19934;-83
2023/06/09 12:37:37;;;;;;;;;;;33.60;27.60;;;32.94;24.11;101081.19;12253094;19;20340;-84
2023/06/09 12:41:39;;;;;;;;;;;33.70;28.00;;;33.05;24.07;101096.75;12249808;19;19923;-83
2023/06/09 12:45:42;;;;;;;;;;;33.70;27.70;;;32.98;24.07;101077.00;12252948;19;20365;-83
2023/06/09 12:49:44;;;;;;;;;;;33.70;27.50;;;33.04;24.09;101086.13;12250585;19;19915;-83
2023/06/09 12:53:46;;;;;;;;;;;33.70;27.60;;;32.92;24.04;101064.38;12248025;19;19926;-84
2023/06/09 12:57:47;;;;;;;;;;;33.70;26.50;;;32.87;23.94;101061.50;12252535;19;20333;-83
2023/06/09 13:01:48;;;;;;;;;;;33.70;27.00;;;32.98;24.09;101079.72;12248429;19;19925;-84
2023/06/09 13:05:50;;;;;;;;;;;33.70;26.80;;;32.87;23.79;101050.69;12249863;19;19922;-83
2023/06/09 13:09:51;;;;;;;;;;;33.70;27.30;;;33.02;23.78;101075.50;12248928;19;19919;-84
2023/06/09 13:13:53;;;;;;;;;;;33.70;27.70;;;33.04;23.88;101053.66;12248676;19;20337;-84
2023/06/09 13:17:54;;;;;;;;;;;33.70;27.40;;;33.18;23.72;101068.69;12248431;19;20273;-84
2023/06/09 13:21:55;;;;;;;;;;;33.80;27.20;;;32.94;23.63;101018.13;12248181;19;19919;-84
2023/06/09 13:25:57;;;;;;;;;;;33.80;27.50;;;33.13;23.70;101055.00;12247491;19;19918;-84
2023/06/09 13:29:58;;;;;;;;;;;33.80;26.50;;;33.14;23.32;101061.25;12250085;19;20462;-83
2023/06/09 13:33:59;;;;;;;;;;;33.80;26.30;;;33.03;23.50;101039.28;12246527;19;20634;-83
2023/06/09 13:38:01;;;;;;;;;;;33.70;27.00;;;33.15;23.50;101054.78;12249572;19;19921;-83
2023/06/09 13:42:03;;;;;;;;;;;33.80;27.10;;;33.22;23.28;101052.81;12246720;19;20324;-84
2023/06/09 13:46:04;;;;;;;;;;;33.80;27.20;;;33.17;23.31;101034.53;12248947;19;20042;-84
2023/06/09 13:50:06;;;;;;;;;;;33.90;26.70;;;33.28;23.44;101052.72;12247951;19;19915;-83
2023/06/09 13:54:08;;;;;;;;;;;33.90;26.90;;;33.26;23.49;101045.88;12244739;19;19919;-84
2023/06/09 13:58:09;;;;;;;;;;;33.90;27.30;;;33.30;23.40;101051.66;12248072;19;20395;-83
2023/06/09 14:02:10;;;;;;;;;;;33.90;26.90;;;33.36;23.59;101054.31;12246157;19;19918;-83
2023/06/09 14:06:12;;;;;;;;;;;33.90;26.90;;;33.37;23.40;101050.53;12248827;19;19943;-83
2023/06/09 14:10:14;;;;;;;;;;;34.00;27.20;;;33.33;22.95;101040.41;12248923;19;20633;-83
2023/06/09 14:14:16;;;;;;;;;;;34.00;27.20;;;33.38;23.18;101032.41;12243069;19;19929;-83
2023/06/09 14:18:18;;;;;;;;;;;34.00;27.00;;;33.42;23.53;101036.31;12247405;19;21068;-83
2023/06/09 14:22:19;;;;;;;;;;;34.00;27.00;;;33.46;23.41;101032.94;12246188;19;20341;-84
2023/06/09 14:26:21;;;;;;;;;;;34.00;26.10;;;33.45;23.31;101022.31;12247720;19;19922;-82
2023/06/09 14:30:23;;;;;;;;;;;34.00;27.00;;;33.45;23.05;101031.25;12245631;19;19919;-82
2023/06/09 14:34:25;;;;;;;;;;;34.00;26.50;;;33.39;23.07;101015.94;12242463;19;19918;-82
2023/06/09 14:38:28;;;;;;;;;;;34.00;26.70;;;33.38;22.95;101019.72;12253149;19;19932;-83
2023/06/09 14:42:29;;;;;;;;;;;34.00;26.80;;;33.38;23.01;101017.00;12256074;19;19930;-83
2023/06/09 14:46:31;;;;;;;;;;;34.00;26.80;;;33.30;22.96;101009.19;12258055;19;19931;-82
2023/06/09 14:50:34;;;;;;;;;;;33.90;26.90;;;33.34;22.89;101018.50;12255332;19;19940;-83
2023/06/09 14:54:36;;;;;;;;;;;33.90;26.30;;;33.32;22.85;101022.50;12255107;19;19929;-83
2023/06/09 14:58:38;;;;;;;;;;;33.90;26.90;;;33.33;22.84;101024.97;12257845;19;19942;-83
2023/06/09 15:02:40;;;;;;;;;;;33.90;26.80;;;33.35;22.88;101020.16;12254290;19;20580;-82
2023/06/09 15:06:42;;;;;;;;;;;33.90;27.10;;;33.33;22.84;101011.44;12257259;19;20281;-83
2023/06/09 15:10:45;;;;;;;;;;;33.90;27.00;;;33.42;22.88;101020.88;12255001;19;19919;-83
2023/06/09 15:14:46;;;;;;;;;;;33.90;27.10;;;33.43;22.88;101017.16;12254859;19;19918;-83
2023/06/09 15:18:48;;;;;;;;;;;34.00;26.80;;;33.44;22.96;101021.50;12254456;19;20294;-83
2023/06/09 15:22:49;;;;;;;;;;;33.90;27.00;;;33.40;23.09;101016.75;12244441;19;19922;-84
2023/06/09 15:26:50;;;;;;;;;;;33.90;26.30;;;33.35;22.47;101013.91;12250868;19;19922;-83
2023/06/09 15:30:52;;;;;;;;;;;33.90;26.50;;;33.34;22.75;101020.38;12250097;19;19995;-83
2023/06/09 15:34:53;;;;;;;;;;;33.90;26.20;;;33.34;23.01;101013.09;12253866;19;19922;-83
2023/06/09 15:38:55;;;;;;;;;;;33.80;27.10;;;33.35;22.67;101014.75;12253560;19;19922;-83
2023/06/09 15:42:57;;;;;;;;;;;33.80;27.00;;;33.26;22.64;101008.81;12248583;19;19922;-83
2023/06/09 15:46:59;;;;;;;;;;;33.80;26.80;;;33.25;22.64;101017.16;12251962;19;20441;-84
2023/06/09 15:51:00;;;;;;;;;;;33.70;26.90;;;33.14;22.75;101013.34;12252482;19;20270;-84
2023/06/09 15:55:05;;;;;;;;;;;33.70;26.90;;;33.11;22.64;101019.22;12250922;19;20332;-83
2023/06/09 15:59:07;;;;;;;;;;;33.60;26.90;;;33.07;22.55;101011.78;12246027;19;20403;-84
2023/06/09 16:03:08;;;;;;;;;;;33.50;26.60;;;33.02;22.86;101009.75;12247663;19;19930;-83
2023/06/09 16:07:09;;;;;;;;;;;33.50;27.10;;;32.98;22.67;101009.34;12253022;19;19923;-83
2023/06/09 16:11:11;;;;;;;;;;;33.50;27.10;;;32.97;22.65;101017.69;12251556;19;19982;-83
2023/06/09 16:15:12;;;;;;;;;;;33.50;27.10;;;32.88;22.36;101029.88;12250160;19;19914;-83
2023/06/09 16:19:14;;;;;;;;;;;33.40;26.90;;;32.73;22.86;101028.38;12251550;19;20333;-83
2023/06/09 16:23:16;;;;;;;;;;;33.30;26.50;;;32.61;22.57;101028.25;12245920;19;19940;-83
2023/06/09 16:27:17;;;;;;;;;;;33.20;26.70;;;32.39;22.32;101025.09;12247513;19;19922;-84
2023/06/09 16:31:19;;;;;;;;;;;33.00;27.00;;;32.24;22.68;101029.19;12249158;19;19918;-83
2023/06/09 16:35:21;;;;;;;;;;;32.90;26.90;;;32.14;22.75;101043.22;12251103;19;19926;-83
2023/06/09 16:39:22;;;;;;;;;;;32.70;26.80;;;32.09;22.40;101037.63;12252679;19;20279;-83
2023/06/09 16:43:23;;;;;;;;;;;32.60;26.60;;;32.00;22.62;101038.94;12249306;19;19929;-82
2023/06/09 16:47:25;;;;;;;;;;;32.60;27.10;;;31.98;22.55;101022.13;12252306;19;19919;-83
2023/06/09 16:51:27;;;;;;;;;;;32.50;27.20;;;32.01;22.66;101044.13;12246371;19;19915;-83
2023/06/09 16:55:28;;;;;;;;;;;32.40;27.10;;;31.89;22.62;101021.53;12251702;19;19914;-83
2023/06/09 16:59:29;;;;;;;;;;;32.40;27.30;;;31.89;22.82;101033.19;12248191;19;19987;-83
2023/06/09 17:03:31;;;;;;;;;;;32.40;27.30;;;31.80;22.50;101033.66;12247520;19;19911;-83
2023/06/09 17:07:34;;;;;;;;;;;32.30;27.30;;;31.73;22.85;101044.47;12250530;19;20286;-83
2023/06/09 17:11:36;;;;;;;;;;;32.20;27.20;;;31.58;22.93;101047.47;12249775;19;19915;-83
2023/06/09 17:15:38;;;;;;;;;;;32.10;27.20;;;31.40;22.59;101044.66;12251200;19;19982;-83
2023/06/09 17:19:41;;;;;;;;;;;32.00;27.30;;;31.33;22.86;101039.28;12250159;19;19927;-84
2023/06/09 17:23:42;;;;;;;;;;;31.90;27.60;;;31.29;22.96;101055.03;12245854;19;19942;-84
2023/06/09 17:27:45;;;;;;;;;;;31.80;27.90;;;31.20;23.12;101060.91;12253063;19;19915;-84
2023/06/09 17:31:46;;;;;;;;;;;31.70;28.00;;;30.91;22.85;101030.69;12248063;19;20275;-83
2023/06/09 17:35:48;;;;;;;;;;;31.60;28.50;;;31.00;23.26;101079.84;12251837;19;19919;-83
2023/06/09 17:39:49;;;;;;;;;;;31.50;28.40;;;30.71;22.81;101057.69;12251815;19;19915;-84
2023/06/09 17:43:51;;;;;;;;;;;31.40;28.50;;;30.42;23.35;101021.19;12247451;19;19940;-84
2023/06/09 17:47:53;;;;;;;;;;;31.20;29.10;;;30.51;23.14;101052.28;12252000;19;20331;-83
2023/06/09 17:51:56;;;;;;;;;;;31.10;28.60;;;30.60;23.25;101090.66;12250596;19;20396;-84
2023/06/09 17:55:57;;;;;;;;;;;31.00;29.80;;;30.21;23.33;101054.53;12253045;19;20587;-83
2023/06/09 17:59:59;;;;;;;;;;;30.90;30.30;;;30.29;23.58;101102.88;12240705;19;19922;-84
2023/06/09 18:04:01;;;;;;;;;;;30.80;29.90;;;30.10;23.61;101103.66;12244779;19;20008;-84
2023/06/09 18:08:02;;;;;;;;;;;30.60;29.10;;;29.93;23.92;101098.63;12251063;19;20290;-86
2023/06/09 18:12:04;;;;;;;;;;;30.50;30.30;;;29.66;24.02;101086.13;12256091;19;19966;-84